sensor_id;sensor_type;location;lat;lon;timestamp;P1;durP1;ratioP1;P2;durP2;ratioP2
67053;SDS011;53960;51.826;5.850;2023-06-19T00:00:36;11.13;;;6.03;;
67053;SDS011;53960;51.826;5.850;2023-06-19T00:03:01;10.87;;;6.77;;
67053;SDS011;53960;51.826;5.850;2023-06-19T00:05:26;13.43;;;7.10;;
67053;SDS011;53960;51.826;5.850;2023-06-19T00:07:52;13.43;;;7.37;;
67053;SDS011;53960;51.826;5.850;2023-06-19T00:10:18;12.10;;;6.93;;
67053;SDS011;53960;51.826;5.850;2023-06-19T00:12:43;11.50;;;6.67;;
67053;SDS011;53960;51.826;5.850;2023-06-19T00:15:09;11.60;;;6.93;;
67053;SDS011;53960;51.826;5.850;2023-06-19T00:17:35;11.00;;;6.65;;
67053;SDS011;53960;51.826;5.850;2023-06-19T00:20:02;12.25;;;6.72;;
67053;SDS011;53960;51.826;5.850;2023-06-19T00:22:30;11.73;;;6.57;;
67053;SDS011;53960;51.826;5.850;2023-06-19T00:24:55;12.60;;;6.77;;
67053;SDS011;53960;51.826;5.850;2023-06-19T00:27:20;13.43;;;7.00;;
67053;SDS011;53960;51.826;5.850;2023-06-19T00:29:46;10.57;;;6.30;;
67053;SDS011;53960;51.826;5.850;2023-06-19T00:32:11;9.77;;;6.40;;
67053;SDS011;53960;51.826;5.850;2023-06-19T00:34:37;12.20;;;6.60;;
67053;SDS011;53960;51.826;5.850;2023-06-19T00:37:03;10.07;;;6.28;;
67053;SDS011;53960;51.826;5.850;2023-06-19T00:39:29;10.63;;;5.80;;
67053;SDS011;53960;51.826;5.850;2023-06-19T00:41:55;10.97;;;6.43;;
67053;SDS011;53960;51.826;5.850;2023-06-19T00:44:21;11.07;;;5.77;;
67053;SDS011;53960;51.826;5.850;2023-06-19T00:46:47;10.57;;;5.80;;
67053;SDS011;53960;51.826;5.850;2023-06-19T00:49:16;11.20;;;6.00;;
67053;SDS011;53960;51.826;5.850;2023-06-19T00:51:41;9.23;;;5.60;;
67053;SDS011;53960;51.826;5.850;2023-06-19T00:54:07;11.03;;;5.63;;
67053;SDS011;53960;51.826;5.850;2023-06-19T00:56:33;9.80;;;5.60;;
67053;SDS011;53960;51.826;5.850;2023-06-19T00:59:01;9.85;;;5.75;;
67053;SDS011;53960;51.826;5.850;2023-06-19T01:01:32;11.75;;;5.97;;
67053;SDS011;53960;51.826;5.850;2023-06-19T01:03:57;10.20;;;5.67;;
67053;SDS011;53960;51.826;5.850;2023-06-19T01:06:26;10.63;;;6.23;;
67053;SDS011;53960;51.826;5.850;2023-06-19T01:09:04;11.55;;;6.13;;
67053;SDS011;53960;51.826;5.850;2023-06-19T01:11:33;10.13;;;5.88;;
67053;SDS011;53960;51.826;5.850;2023-06-19T01:14:48;9.98;;;5.65;;
67053;SDS011;53960;51.826;5.850;2023-06-19T01:16:51;11.13;;;5.23;;
67053;SDS011;53960;51.826;5.850;2023-06-19T01:19:20;10.18;;;5.20;;
67053;SDS011;53960;51.826;5.850;2023-06-19T01:21:46;11.60;;;5.43;;
67053;SDS011;53960;51.826;5.850;2023-06-19T01:24:13;12.47;;;5.30;;
67053;SDS011;53960;51.826;5.850;2023-06-19T01:26:38;9.68;;;5.30;;
67053;SDS011;53960;51.826;5.850;2023-06-19T01:29:04;10.25;;;5.28;;
67053;SDS011;53960;51.826;5.850;2023-06-19T01:33:58;11.05;;;5.15;;
67053;SDS011;53960;51.826;5.850;2023-06-19T01:36:26;9.82;;;5.72;;
67053;SDS011;53960;51.826;5.850;2023-06-19T01:38:53;11.15;;;5.75;;
67053;SDS011;53960;51.826;5.850;2023-06-19T01:41:20;9.63;;;5.13;;
67053;SDS011;53960;51.826;5.850;2023-06-19T01:43:48;10.27;;;5.50;;
67053;SDS011;53960;51.826;5.850;2023-06-19T01:46:14;10.38;;;5.32;;
67053;SDS011;53960;51.826;5.850;2023-06-19T01:48:40;9.97;;;5.23;;
67053;SDS011;53960;51.826;5.850;2023-06-19T01:51:05;10.23;;;5.45;;
67053;SDS011;53960;51.826;5.850;2023-06-19T01:53:31;10.63;;;5.13;;
67053;SDS011;53960;51.826;5.850;2023-06-19T01:55:57;11.20;;;5.37;;
67053;SDS011;53960;51.826;5.850;2023-06-19T01:58:23;9.73;;;4.72;;
67053;SDS011;53960;51.826;5.850;2023-06-19T02:00:48;9.40;;;4.90;;
67053;SDS011;53960;51.826;5.850;2023-06-19T02:03:13;9.02;;;4.35;;
67053;SDS011;53960;51.826;5.850;2023-06-19T02:05:39;10.47;;;4.17;;
67053;SDS011;53960;51.826;5.850;2023-06-19T02:08:05;10.33;;;4.53;;
67053;SDS011;53960;51.826;5.850;2023-06-19T02:10:31;9.45;;;4.50;;
67053;SDS011;53960;51.826;5.850;2023-06-19T02:12:56;9.40;;;4.30;;
67053;SDS011;53960;51.826;5.850;2023-06-19T02:15:22;10.57;;;3.93;;
67053;SDS011;53960;51.826;5.850;2023-06-19T02:17:47;9.83;;;4.03;;
67053;SDS011;53960;51.826;5.850;2023-06-19T02:20:13;8.80;;;3.42;;
67053;SDS011;53960;51.826;5.850;2023-06-19T02:22:38;9.17;;;4.40;;
67053;SDS011;53960;51.826;5.850;2023-06-19T02:25:05;8.93;;;3.40;;
67053;SDS011;53960;51.826;5.850;2023-06-19T02:27:30;8.80;;;3.40;;
67053;SDS011;53960;51.826;5.850;2023-06-19T02:29:56;8.27;;;3.40;;
67053;SDS011;53960;51.826;5.850;2023-06-19T02:32:21;9.57;;;3.77;;
67053;SDS011;53960;51.826;5.850;2023-06-19T02:34:46;7.97;;;3.43;;
67053;SDS011;53960;51.826;5.850;2023-06-19T02:37:12;8.53;;;3.60;;
67053;SDS011;53960;51.826;5.850;2023-06-19T02:39:37;8.77;;;3.43;;
67053;SDS011;53960;51.826;5.850;2023-06-19T02:42:03;9.93;;;3.20;;
67053;SDS011;53960;51.826;5.850;2023-06-19T02:44:28;9.33;;;3.30;;
67053;SDS011;53960;51.826;5.850;2023-06-19T02:46:54;7.97;;;2.80;;
67053;SDS011;53960;51.826;5.850;2023-06-19T02:49:19;9.67;;;3.23;;
67053;SDS011;53960;51.826;5.850;2023-06-19T02:51:44;8.35;;;3.15;;
67053;SDS011;53960;51.826;5.850;2023-06-19T02:54:10;8.47;;;3.43;;
67053;SDS011;53960;51.826;5.850;2023-06-19T02:56:36;8.30;;;3.10;;
67053;SDS011;53960;51.826;5.850;2023-06-19T02:59:03;8.07;;;3.15;;
67053;SDS011;53960;51.826;5.850;2023-06-19T03:01:28;8.60;;;3.13;;
67053;SDS011;53960;51.826;5.850;2023-06-19T03:03:54;8.23;;;3.42;;
67053;SDS011;53960;51.826;5.850;2023-06-19T03:06:19;8.70;;;3.20;;
67053;SDS011;53960;51.826;5.850;2023-06-19T03:08:45;8.00;;;3.07;;
67053;SDS011;53960;51.826;5.850;2023-06-19T03:11:11;8.10;;;3.33;;
67053;SDS011;53960;51.826;5.850;2023-06-19T03:16:17;7.40;;;2.47;;
67053;SDS011;53960;51.826;5.850;2023-06-19T03:18:43;8.15;;;2.90;;
67053;SDS011;53960;51.826;5.850;2023-06-19T03:21:13;7.22;;;2.70;;
67053;SDS011;53960;51.826;5.850;2023-06-19T03:23:39;8.93;;;2.80;;
67053;SDS011;53960;51.826;5.850;2023-06-19T03:26:08;7.25;;;2.40;;
67053;SDS011;53960;51.826;5.850;2023-06-19T03:28:35;6.75;;;2.40;;
67053;SDS011;53960;51.826;5.850;2023-06-19T03:31:00;7.03;;;2.40;;
67053;SDS011;53960;51.826;5.850;2023-06-19T03:33:25;7.43;;;2.87;;
67053;SDS011;53960;51.826;5.850;2023-06-19T03:35:51;6.63;;;2.28;;
67053;SDS011;53960;51.826;5.850;2023-06-19T03:38:16;6.83;;;2.50;;
67053;SDS011;53960;51.826;5.850;2023-06-19T03:40:41;8.13;;;2.40;;
67053;SDS011;53960;51.826;5.850;2023-06-19T03:43:07;7.70;;;2.67;;
67053;SDS011;53960;51.826;5.850;2023-06-19T03:45:32;8.13;;;2.60;;
67053;SDS011;53960;51.826;5.850;2023-06-19T03:47:57;7.20;;;2.40;;
67053;SDS011;53960;51.826;5.850;2023-06-19T03:50:23;7.17;;;2.67;;
67053;SDS011;53960;51.826;5.850;2023-06-19T03:52:48;7.60;;;2.38;;
67053;SDS011;53960;51.826;5.850;2023-06-19T03:55:13;7.10;;;2.30;;
67053;SDS011;53960;51.826;5.850;2023-06-19T03:57:39;7.57;;;2.27;;
67053;SDS011;53960;51.826;5.850;2023-06-19T04:00:04;7.57;;;2.67;;
67053;SDS011;53960;51.826;5.850;2023-06-19T04:02:36;7.90;;;2.63;;
67053;SDS011;53960;51.826;5.850;2023-06-19T04:05:01;8.83;;;2.80;;
67053;SDS011;53960;51.826;5.850;2023-06-19T04:07:27;8.13;;;2.50;;
67053;SDS011;53960;51.826;5.850;2023-06-19T04:09:52;7.73;;;2.80;;
67053;SDS011;53960;51.826;5.850;2023-06-19T04:12:17;7.77;;;2.43;;
67053;SDS011;53960;51.826;5.850;2023-06-19T04:14:43;7.93;;;2.57;;
67053;SDS011;53960;51.826;5.850;2023-06-19T04:17:08;7.20;;;2.87;;
67053;SDS011;53960;51.826;5.850;2023-06-19T04:19:33;8.33;;;3.20;;
67053;SDS011;53960;51.826;5.850;2023-06-19T04:21:59;7.87;;;3.20;;
67053;SDS011;53960;51.826;5.850;2023-06-19T04:24:24;8.82;;;2.55;;
67053;SDS011;53960;51.826;5.850;2023-06-19T04:26:49;7.63;;;2.80;;
67053;SDS011;53960;51.826;5.850;2023-06-19T04:29:15;7.07;;;2.50;;
67053;SDS011;53960;51.826;5.850;2023-06-19T04:31:43;8.27;;;3.00;;
67053;SDS011;53960;51.826;5.850;2023-06-19T04:34:18;7.72;;;2.85;;
67053;SDS011;53960;51.826;5.850;2023-06-19T04:36:46;7.80;;;2.63;;
67053;SDS011;53960;51.826;5.850;2023-06-19T04:39:12;9.15;;;2.80;;
67053;SDS011;53960;51.826;5.850;2023-06-19T04:41:37;7.40;;;2.53;;
67053;SDS011;53960;51.826;5.850;2023-06-19T04:44:04;8.90;;;3.10;;
67053;SDS011;53960;51.826;5.850;2023-06-19T04:46:29;7.65;;;2.88;;
67053;SDS011;53960;51.826;5.850;2023-06-19T04:48:55;9.50;;;3.13;;
67053;SDS011;53960;51.826;5.850;2023-06-19T04:51:20;8.60;;;3.13;;
67053;SDS011;53960;51.826;5.850;2023-06-19T04:53:49;8.93;;;3.30;;
67053;SDS011;53960;51.826;5.850;2023-06-19T04:56:15;10.03;;;3.27;;
67053;SDS011;53960;51.826;5.850;2023-06-19T04:58:40;8.85;;;3.33;;
67053;SDS011;53960;51.826;5.850;2023-06-19T05:01:14;9.13;;;3.42;;
67053;SDS011;53960;51.826;5.850;2023-06-19T05:03:40;8.48;;;3.38;;
67053;SDS011;53960;51.826;5.850;2023-06-19T05:06:06;10.02;;;3.53;;
67053;SDS011;53960;51.826;5.850;2023-06-19T05:08:32;8.60;;;3.50;;
67053;SDS011;53960;51.826;5.850;2023-06-19T05:10:57;7.93;;;3.17;;
67053;SDS011;53960;51.826;5.850;2023-06-19T05:13:23;8.68;;;3.25;;
67053;SDS011;53960;51.826;5.850;2023-06-19T05:15:49;10.17;;;3.90;;
67053;SDS011;53960;51.826;5.850;2023-06-19T05:18:15;7.88;;;3.35;;
67053;SDS011;53960;51.826;5.850;2023-06-19T05:20:41;8.30;;;3.33;;
67053;SDS011;53960;51.826;5.850;2023-06-19T05:23:06;9.23;;;3.50;;
67053;SDS011;53960;51.826;5.850;2023-06-19T05:25:31;11.10;;;4.47;;
67053;SDS011;53960;51.826;5.850;2023-06-19T05:27:57;9.10;;;3.90;;
67053;SDS011;53960;51.826;5.850;2023-06-19T05:30:22;10.00;;;4.40;;
67053;SDS011;53960;51.826;5.850;2023-06-19T05:32:47;10.00;;;4.63;;
67053;SDS011;53960;51.826;5.850;2023-06-19T05:35:13;10.82;;;4.82;;
67053;SDS011;53960;51.826;5.850;2023-06-19T05:37:38;10.33;;;4.83;;
67053;SDS011;53960;51.826;5.850;2023-06-19T05:40:05;10.48;;;4.57;;
67053;SDS011;53960;51.826;5.850;2023-06-19T05:42:31;8.93;;;4.20;;
67053;SDS011;53960;51.826;5.850;2023-06-19T05:44:56;9.43;;;4.70;;
67053;SDS011;53960;51.826;5.850;2023-06-19T05:47:21;10.88;;;4.80;;
67053;SDS011;53960;51.826;5.850;2023-06-19T05:49:50;12.33;;;5.10;;
67053;SDS011;53960;51.826;5.850;2023-06-19T05:52:16;10.82;;;4.40;;
67053;SDS011;53960;51.826;5.850;2023-06-19T05:54:42;9.85;;;4.88;;
67053;SDS011;53960;51.826;5.850;2023-06-19T05:57:07;9.63;;;4.63;;
67053;SDS011;53960;51.826;5.850;2023-06-19T05:59:32;11.07;;;4.87;;
67053;SDS011;53960;51.826;5.850;2023-06-19T06:01:58;10.30;;;4.37;;
67053;SDS011;53960;51.826;5.850;2023-06-19T06:04:23;10.10;;;4.67;;
67053;SDS011;53960;51.826;5.850;2023-06-19T06:06:48;10.37;;;4.93;;
67053;SDS011;53960;51.826;5.850;2023-06-19T06:09:14;9.23;;;4.80;;
67053;SDS011;53960;51.826;5.850;2023-06-19T06:11:41;9.17;;;4.60;;
67053;SDS011;53960;51.826;5.850;2023-06-19T06:14:06;9.10;;;5.05;;
67053;SDS011;53960;51.826;5.850;2023-06-19T06:16:32;10.17;;;5.17;;
67053;SDS011;53960;51.826;5.850;2023-06-19T06:18:57;11.63;;;5.30;;
67053;SDS011;53960;51.826;5.850;2023-06-19T06:21:23;11.25;;;5.40;;
67053;SDS011;53960;51.826;5.850;2023-06-19T06:23:49;10.70;;;4.90;;
67053;SDS011;53960;51.826;5.850;2023-06-19T06:26:14;9.73;;;5.10;;
67053;SDS011;53960;51.826;5.850;2023-06-19T06:28:39;12.50;;;5.10;;
67053;SDS011;53960;51.826;5.850;2023-06-19T06:31:05;10.25;;;5.72;;
67053;SDS011;53960;51.826;5.850;2023-06-19T06:33:30;10.83;;;5.90;;
67053;SDS011;53960;51.826;5.850;2023-06-19T06:35:57;10.53;;;6.13;;
67053;SDS011;53960;51.826;5.850;2023-06-19T06:38:23;12.27;;;5.90;;
67053;SDS011;53960;51.826;5.850;2023-06-19T06:40:48;10.70;;;5.73;;
67053;SDS011;53960;51.826;5.850;2023-06-19T06:43:13;11.47;;;7.03;;
67053;SDS011;53960;51.826;5.850;2023-06-19T06:45:39;12.00;;;6.90;;
67053;SDS011;53960;51.826;5.850;2023-06-19T06:48:06;12.57;;;6.53;;
67053;SDS011;53960;51.826;5.850;2023-06-19T06:50:32;10.95;;;6.40;;
67053;SDS011;53960;51.826;5.850;2023-06-19T06:52:57;10.90;;;6.43;;
67053;SDS011;53960;51.826;5.850;2023-06-19T06:55:23;11.97;;;6.50;;
67053;SDS011;53960;51.826;5.850;2023-06-19T06:57:48;11.27;;;5.73;;
67053;SDS011;53960;51.826;5.850;2023-06-19T07:00:13;10.37;;;5.80;;
67053;SDS011;53960;51.826;5.850;2023-06-19T07:02:39;12.15;;;6.50;;
67053;SDS011;53960;51.826;5.850;2023-06-19T07:05:06;12.57;;;6.63;;
67053;SDS011;53960;51.826;5.850;2023-06-19T07:07:33;11.40;;;6.23;;
67053;SDS011;53960;51.826;5.850;2023-06-19T07:09:58;11.30;;;6.50;;
67053;SDS011;53960;51.826;5.850;2023-06-19T07:12:24;11.48;;;6.70;;
67053;SDS011;53960;51.826;5.850;2023-06-19T07:14:52;11.60;;;6.67;;
67053;SDS011;53960;51.826;5.850;2023-06-19T07:17:18;11.17;;;6.80;;
67053;SDS011;53960;51.826;5.850;2023-06-19T07:19:43;10.40;;;6.43;;
67053;SDS011;53960;51.826;5.850;2023-06-19T07:22:08;10.33;;;6.37;;
67053;SDS011;53960;51.826;5.850;2023-06-19T07:24:34;10.57;;;6.67;;
67053;SDS011;53960;51.826;5.850;2023-06-19T07:26:59;10.80;;;6.33;;
67053;SDS011;53960;51.826;5.850;2023-06-19T07:29:25;11.93;;;6.80;;
67053;SDS011;53960;51.826;5.850;2023-06-19T07:31:51;12.18;;;7.68;;
67053;SDS011;53960;51.826;5.850;2023-06-19T07:34:16;12.73;;;7.60;;
67053;SDS011;53960;51.826;5.850;2023-06-19T07:36:42;13.70;;;8.60;;
67053;SDS011;53960;51.826;5.850;2023-06-19T07:39:07;12.30;;;8.03;;
67053;SDS011;53960;51.826;5.850;2023-06-19T07:41:32;12.50;;;7.70;;
67053;SDS011;53960;51.826;5.850;2023-06-19T07:43:58;12.43;;;7.23;;
67053;SDS011;53960;51.826;5.850;2023-06-19T07:46:23;13.90;;;7.73;;
67053;SDS011;53960;51.826;5.850;2023-06-19T07:48:48;15.20;;;7.80;;
67053;SDS011;53960;51.826;5.850;2023-06-19T07:51:14;14.97;;;7.93;;
67053;SDS011;53960;51.826;5.850;2023-06-19T07:53:39;12.57;;;7.60;;
67053;SDS011;53960;51.826;5.850;2023-06-19T07:56:04;11.70;;;7.17;;
67053;SDS011;53960;51.826;5.850;2023-06-19T07:58:30;12.67;;;6.97;;
67053;SDS011;53960;51.826;5.850;2023-06-19T08:00:55;12.23;;;6.87;;
67053;SDS011;53960;51.826;5.850;2023-06-19T08:03:20;13.17;;;7.57;;
67053;SDS011;53960;51.826;5.850;2023-06-19T08:05:46;12.65;;;6.93;;
67053;SDS011;53960;51.826;5.850;2023-06-19T08:08:12;11.90;;;6.63;;
67053;SDS011;53960;51.826;5.850;2023-06-19T08:10:38;11.90;;;6.80;;
67053;SDS011;53960;51.826;5.850;2023-06-19T08:13:03;12.87;;;6.53;;
67053;SDS011;53960;51.826;5.850;2023-06-19T08:15:28;13.23;;;7.07;;
67053;SDS011;53960;51.826;5.850;2023-06-19T08:17:54;12.87;;;7.27;;
67053;SDS011;53960;51.826;5.850;2023-06-19T08:20:19;16.00;;;8.43;;
67053;SDS011;53960;51.826;5.850;2023-06-19T08:22:45;13.75;;;7.03;;
67053;SDS011;53960;51.826;5.850;2023-06-19T08:25:11;13.97;;;7.70;;
67053;SDS011;53960;51.826;5.850;2023-06-19T08:27:36;13.55;;;8.00;;
67053;SDS011;53960;51.826;5.850;2023-06-19T08:30:02;13.47;;;7.30;;
67053;SDS011;53960;51.826;5.850;2023-06-19T08:32:28;12.55;;;7.47;;
67053;SDS011;53960;51.826;5.850;2023-06-19T08:34:53;12.83;;;7.90;;
67053;SDS011;53960;51.826;5.850;2023-06-19T08:37:18;12.63;;;7.90;;
67053;SDS011;53960;51.826;5.850;2023-06-19T08:39:44;14.20;;;8.67;;
67053;SDS011;53960;51.826;5.850;2023-06-19T08:42:09;12.77;;;7.72;;
67053;SDS011;53960;51.826;5.850;2023-06-19T08:44:35;15.20;;;8.63;;
67053;SDS011;53960;51.826;5.850;2023-06-19T08:47:01;13.47;;;8.30;;
67053;SDS011;53960;51.826;5.850;2023-06-19T08:49:31;14.60;;;8.63;;
67053;SDS011;53960;51.826;5.850;2023-06-19T08:51:58;12.88;;;8.32;;
67053;SDS011;53960;51.826;5.850;2023-06-19T08:54:24;13.50;;;8.90;;
67053;SDS011;53960;51.826;5.850;2023-06-19T08:56:50;13.88;;;9.00;;
67053;SDS011;53960;51.826;5.850;2023-06-19T08:59:16;14.80;;;9.10;;
67053;SDS011;53960;51.826;5.850;2023-06-19T09:01:49;13.75;;;9.43;;
67053;SDS011;53960;51.826;5.850;2023-06-19T09:04:23;15.75;;;8.45;;
67053;SDS011;53960;51.826;5.850;2023-06-19T09:06:55;14.50;;;9.15;;
67053;SDS011;53960;51.826;5.850;2023-06-19T09:09:22;17.77;;;9.43;;
67053;SDS011;53960;51.826;5.850;2023-06-19T09:12:01;14.37;;;9.33;;
67053;SDS011;53960;51.826;5.850;2023-06-19T09:14:34;15.40;;;9.98;;
67053;SDS011;53960;51.826;5.850;2023-06-19T09:17:05;14.93;;;9.40;;
67053;SDS011;53960;51.826;5.850;2023-06-19T09:19:34;21.33;;;11.02;;
67053;SDS011;53960;51.826;5.850;2023-06-19T09:22:00;15.33;;;9.80;;
67053;SDS011;53960;51.826;5.850;2023-06-19T09:24:34;16.90;;;10.35;;
67053;SDS011;53960;51.826;5.850;2023-06-19T09:27:14;13.93;;;9.55;;
67053;SDS011;53960;51.826;5.850;2023-06-19T09:29:44;16.30;;;10.03;;
67053;SDS011;53960;51.826;5.850;2023-06-19T09:32:22;14.07;;;10.00;;
67053;SDS011;53960;51.826;5.850;2023-06-19T09:34:50;15.15;;;10.20;;
67053;SDS011;53960;51.826;5.850;2023-06-19T09:37:23;12.20;;;8.55;;
67053;SDS011;53960;51.826;5.850;2023-06-19T09:39:56;14.40;;;9.98;;
67053;SDS011;53960;51.826;5.850;2023-06-19T09:42:24;15.67;;;10.33;;
67053;SDS011;53960;51.826;5.850;2023-06-19T09:44:52;15.35;;;10.40;;
67053;SDS011;53960;51.826;5.850;2023-06-19T09:47:23;17.92;;;12.00;;
67053;SDS011;53960;51.826;5.850;2023-06-19T09:49:53;16.45;;;10.48;;
67053;SDS011;53960;51.826;5.850;2023-06-19T09:52:20;15.18;;;10.43;;
67053;SDS011;53960;51.826;5.850;2023-06-19T09:54:47;14.20;;;10.60;;
67053;SDS011;53960;51.826;5.850;2023-06-19T09:57:14;15.32;;;9.82;;
67053;SDS011;53960;51.826;5.850;2023-06-19T09:59:40;14.83;;;10.67;;
67053;SDS011;53960;51.826;5.850;2023-06-19T10:02:07;15.40;;;10.75;;
67053;SDS011;53960;51.826;5.850;2023-06-19T10:04:52;14.07;;;9.07;;
67053;SDS011;53960;51.826;5.850;2023-06-19T10:07:23;14.30;;;9.95;;
67053;SDS011;53960;51.826;5.850;2023-06-19T10:10:00;12.63;;;8.63;;
67053;SDS011;53960;51.826;5.850;2023-06-19T10:17:47;15.38;;;9.38;;
67053;SDS011;53960;51.826;5.850;2023-06-19T10:20:20;13.13;;;8.20;;
67053;SDS011;53960;51.826;5.850;2023-06-19T10:25:22;15.02;;;9.75;;
67053;SDS011;53960;51.826;5.850;2023-06-19T10:27:48;14.07;;;9.00;;
67053;SDS011;53960;51.826;5.850;2023-06-19T10:30:17;14.23;;;8.43;;
67053;SDS011;53960;51.826;5.850;2023-06-19T10:32:44;13.63;;;8.38;;
67053;SDS011;53960;51.826;5.850;2023-06-19T10:35:12;17.67;;;9.33;;
67053;SDS011;53960;51.826;5.850;2023-06-19T10:37:39;17.67;;;9.80;;
67053;SDS011;53960;51.826;5.850;2023-06-19T10:40:05;14.55;;;9.43;;
67053;SDS011;53960;51.826;5.850;2023-06-19T10:42:33;14.27;;;9.15;;
67053;SDS011;53960;51.826;5.850;2023-06-19T10:45:02;14.00;;;9.10;;
67053;SDS011;53960;51.826;5.850;2023-06-19T10:47:31;14.30;;;9.90;;
67053;SDS011;53960;51.826;5.850;2023-06-19T10:49:57;13.52;;;9.35;;
67053;SDS011;53960;51.826;5.850;2023-06-19T10:52:22;14.13;;;9.27;;
67053;SDS011;53960;51.826;5.850;2023-06-19T10:54:55;14.65;;;8.65;;
67053;SDS011;53960;51.826;5.850;2023-06-19T10:57:30;12.27;;;8.73;;
67053;SDS011;53960;51.826;5.850;2023-06-19T10:59:56;15.00;;;9.80;;
67053;SDS011;53960;51.826;5.850;2023-06-19T11:02:23;14.80;;;8.50;;
67053;SDS011;53960;51.826;5.850;2023-06-19T11:04:48;16.67;;;10.00;;
67053;SDS011;53960;51.826;5.850;2023-06-19T11:07:16;14.93;;;9.93;;
67053;SDS011;53960;51.826;5.850;2023-06-19T11:09:41;14.03;;;9.10;;
67053;SDS011;53960;51.826;5.850;2023-06-19T11:12:07;14.43;;;9.05;;
67053;SDS011;53960;51.826;5.850;2023-06-19T11:14:33;15.93;;;10.60;;
67053;SDS011;53960;51.826;5.850;2023-06-19T11:17:04;13.93;;;8.90;;
67053;SDS011;53960;51.826;5.850;2023-06-19T11:19:33;12.98;;;8.15;;
67053;SDS011;53960;51.826;5.850;2023-06-19T11:21:58;12.60;;;7.80;;
67053;SDS011;53960;51.826;5.850;2023-06-19T11:24:27;13.60;;;8.35;;
67053;SDS011;53960;51.826;5.850;2023-06-19T11:26:53;14.10;;;8.63;;
67053;SDS011;53960;51.826;5.850;2023-06-19T11:29:24;14.55;;;8.75;;
67053;SDS011;53960;51.826;5.850;2023-06-19T11:31:51;12.57;;;7.00;;
67053;SDS011;53960;51.826;5.850;2023-06-19T11:34:35;13.43;;;7.35;;
67053;SDS011;53960;51.826;5.850;2023-06-19T11:37:14;12.93;;;7.43;;
67053;SDS011;53960;51.826;5.850;2023-06-19T11:39:40;12.60;;;7.33;;
67053;SDS011;53960;51.826;5.850;2023-06-19T11:42:09;13.82;;;7.72;;
67053;SDS011;53960;51.826;5.850;2023-06-19T11:44:35;12.03;;;6.77;;
67053;SDS011;53960;51.826;5.850;2023-06-19T11:47:00;15.30;;;7.53;;
67053;SDS011;53960;51.826;5.850;2023-06-19T11:49:27;12.50;;;7.28;;
67053;SDS011;53960;51.826;5.850;2023-06-19T11:51:57;12.47;;;7.60;;
67053;SDS011;53960;51.826;5.850;2023-06-19T11:54:22;12.43;;;7.65;;
67053;SDS011;53960;51.826;5.850;2023-06-19T11:56:48;16.90;;;10.53;;
67053;SDS011;53960;51.826;5.850;2023-06-19T11:59:13;13.03;;;8.20;;
67053;SDS011;53960;51.826;5.850;2023-06-19T12:01:39;15.07;;;8.45;;
67053;SDS011;53960;51.826;5.850;2023-06-19T12:04:04;14.17;;;8.57;;
67053;SDS011;53960;51.826;5.850;2023-06-19T12:06:30;13.83;;;7.97;;
67053;SDS011;53960;51.826;5.850;2023-06-19T12:08:56;15.82;;;8.25;;
67053;SDS011;53960;51.826;5.850;2023-06-19T12:11:21;12.40;;;6.77;;
67053;SDS011;53960;51.826;5.850;2023-06-19T12:13:47;13.57;;;7.82;;
67053;SDS011;53960;51.826;5.850;2023-06-19T12:16:13;14.07;;;7.87;;
67053;SDS011;53960;51.826;5.850;2023-06-19T12:18:39;12.02;;;7.40;;
67053;SDS011;53960;51.826;5.850;2023-06-19T12:21:04;11.33;;;6.00;;
67053;SDS011;53960;51.826;5.850;2023-06-19T12:23:30;13.03;;;6.70;;
67053;SDS011;53960;51.826;5.850;2023-06-19T12:25:56;13.53;;;8.50;;
67053;SDS011;53960;51.826;5.850;2023-06-19T12:28:22;13.73;;;7.20;;
67053;SDS011;53960;51.826;5.850;2023-06-19T12:30:47;15.07;;;8.23;;
67053;SDS011;53960;51.826;5.850;2023-06-19T12:33:15;13.05;;;7.57;;
67053;SDS011;53960;51.826;5.850;2023-06-19T12:35:42;14.18;;;6.95;;
67053;SDS011;53960;51.826;5.850;2023-06-19T12:38:08;15.77;;;9.50;;
67053;SDS011;53960;51.826;5.850;2023-06-19T12:40:34;18.70;;;12.30;;
67053;SDS011;53960;51.826;5.850;2023-06-19T12:43:01;13.73;;;9.77;;
67053;SDS011;53960;51.826;5.850;2023-06-19T12:45:26;13.90;;;8.97;;
67053;SDS011;53960;51.826;5.850;2023-06-19T12:47:51;16.50;;;9.53;;
67053;SDS011;53960;51.826;5.850;2023-06-19T12:50:17;12.30;;;7.82;;
67053;SDS011;53960;51.826;5.850;2023-06-19T12:52:42;11.73;;;6.80;;
67053;SDS011;53960;51.826;5.850;2023-06-19T12:55:07;13.27;;;7.47;;
67053;SDS011;53960;51.826;5.850;2023-06-19T12:57:33;12.10;;;6.80;;
67053;SDS011;53960;51.826;5.850;2023-06-19T12:59:59;12.98;;;6.68;;
67053;SDS011;53960;51.826;5.850;2023-06-19T13:02:24;10.73;;;6.33;;
67053;SDS011;53960;51.826;5.850;2023-06-19T13:04:49;11.97;;;6.30;;
67053;SDS011;53960;51.826;5.850;2023-06-19T13:07:15;10.27;;;5.40;;
67053;SDS011;53960;51.826;5.850;2023-06-19T13:09:40;10.55;;;5.00;;
67053;SDS011;53960;51.826;5.850;2023-06-19T13:12:06;10.37;;;6.17;;
67053;SDS011;53960;51.826;5.850;2023-06-19T13:14:31;11.05;;;5.28;;
67053;SDS011;53960;51.826;5.850;2023-06-19T13:16:57;11.27;;;5.33;;
67053;SDS011;53960;51.826;5.850;2023-06-19T13:19:23;12.45;;;6.07;;
67053;SDS011;53960;51.826;5.850;2023-06-19T13:21:49;10.73;;;5.38;;
67053;SDS011;53960;51.826;5.850;2023-06-19T13:24:15;10.97;;;5.20;;
67053;SDS011;53960;51.826;5.850;2023-06-19T13:26:40;11.43;;;5.23;;
67053;SDS011;53960;51.826;5.850;2023-06-19T13:29:05;13.67;;;7.10;;
67053;SDS011;53960;51.826;5.850;2023-06-19T13:31:31;13.50;;;6.87;;
67053;SDS011;53960;51.826;5.850;2023-06-19T13:33:56;12.27;;;7.97;;
67053;SDS011;53960;51.826;5.850;2023-06-19T13:36:22;14.02;;;8.45;;
67053;SDS011;53960;51.826;5.850;2023-06-19T13:38:48;11.55;;;5.60;;
67053;SDS011;53960;51.826;5.850;2023-06-19T13:41:14;11.57;;;6.30;;
67053;SDS011;53960;51.826;5.850;2023-06-19T13:43:39;13.10;;;6.63;;
67053;SDS011;53960;51.826;5.850;2023-06-19T13:46:05;12.13;;;5.80;;
67053;SDS011;53960;51.826;5.850;2023-06-19T13:48:31;12.02;;;6.32;;
67053;SDS011;53960;51.826;5.850;2023-06-19T13:50:57;12.68;;;7.50;;
67053;SDS011;53960;51.826;5.850;2023-06-19T13:53:24;13.82;;;8.00;;
67053;SDS011;53960;51.826;5.850;2023-06-19T13:55:49;13.07;;;7.00;;
67053;SDS011;53960;51.826;5.850;2023-06-19T13:58:15;12.67;;;6.00;;
67053;SDS011;53960;51.826;5.850;2023-06-19T14:00:40;9.43;;;5.10;;
67053;SDS011;53960;51.826;5.850;2023-06-19T14:03:05;14.13;;;6.43;;
67053;SDS011;53960;51.826;5.850;2023-06-19T14:05:32;12.18;;;6.70;;
67053;SDS011;53960;51.826;5.850;2023-06-19T14:07:58;12.30;;;6.85;;
67053;SDS011;53960;51.826;5.850;2023-06-19T14:10:23;13.07;;;7.60;;
67053;SDS011;53960;51.826;5.850;2023-06-19T14:12:48;15.23;;;7.63;;
67053;SDS011;53960;51.826;5.850;2023-06-19T14:15:14;14.67;;;8.50;;
67053;SDS011;53960;51.826;5.850;2023-06-19T14:17:39;12.33;;;7.40;;
67053;SDS011;53960;51.826;5.850;2023-06-19T14:20:06;13.88;;;8.80;;
67053;SDS011;53960;51.826;5.850;2023-06-19T14:22:32;13.38;;;7.65;;
67053;SDS011;53960;51.826;5.850;2023-06-19T14:24:58;12.33;;;6.67;;
67053;SDS011;53960;51.826;5.850;2023-06-19T14:27:25;13.68;;;6.45;;
67053;SDS011;53960;51.826;5.850;2023-06-19T14:29:51;13.63;;;6.80;;
67053;SDS011;53960;51.826;5.850;2023-06-19T14:32:18;10.95;;;6.03;;
67053;SDS011;53960;51.826;5.850;2023-06-19T14:34:44;12.47;;;6.40;;
67053;SDS011;53960;51.826;5.850;2023-06-19T14:37:09;12.80;;;7.10;;
67053;SDS011;53960;51.826;5.850;2023-06-19T14:39:34;11.45;;;6.90;;
67053;SDS011;53960;51.826;5.850;2023-06-19T14:41:59;14.17;;;7.63;;
67053;SDS011;53960;51.826;5.850;2023-06-19T14:44:25;12.07;;;6.57;;
67053;SDS011;53960;51.826;5.850;2023-06-19T14:46:50;11.77;;;7.00;;